Terminal Aerodrome Forecast
Issued by NWS

Current Version | Previous Version | Text Only | Print | Product List | Glossary On
Versions: 1 2 3 4 5 6 7 8 9 10 11 12 13 14 15 16 17 18 19 20 21
000
FTUS46 KSEW 290200 AAA
TAFHQM
TAF AMD
KHQM 290203Z 2902/2924 05008KT P6SM FEW015 OVC070
     FM290400 08005KT P6SM BKN020 OVC070
     FM291000 06005KT 4SM BR OVC050
     FM291900 04006KT 4SM BR SCT250=

USA.gov is the U.S. government's official web portal to all federal, state and local government web resources and services.